aviador You're here:

KNOZ Decoded Metar

in
Report Time2018-07-19 18:59:00
UTC Time2018-07-19 19:24:38
Flight Rules vfr VFR
WindVRB at 06 kt
Visibility9999 m
Phenomena:N/A
Clouds:N/A
Expected CloudBase > 6,400 ft AGL from Temp-Dew spread
CeilingNone
Temp36°C
Dew Point20°C (39% RH)
Heat Index38.8°C
QNH1014 hPa
Raw Report
KNOZ 191859Z AUTO VRB06KT 10SM CLR 36/20 A2993 RMK AO2 SLP084
T03610200 $=

Extra information for KNOZ:More info

Social comments